sensor_id;sensor_type;location;lat;lon;timestamp;temperature;humidity
4461;DHT22;2243;48.812;9.232;2022-07-29T00:01:54;21.90;99.90
4461;DHT22;2243;48.812;9.232;2022-07-29T00:04:25;22.10;99.90
4461;DHT22;2243;48.812;9.232;2022-07-29T00:06:56;22.00;99.90
4461;DHT22;2243;48.812;9.232;2022-07-29T00:09:27;22.00;99.90
4461;DHT22;2243;48.812;9.232;2022-07-29T00:12:01;22.00;99.90
4461;DHT22;2243;48.812;9.232;2022-07-29T00:14:32;22.00;99.90
4461;DHT22;2243;48.812;9.232;2022-07-29T00:17:03;22.00;99.90
4461;DHT22;2243;48.812;9.232;2022-07-29T00:19:34;22.00;99.90
4461;DHT22;2243;48.812;9.232;2022-07-29T00:22:05;22.10;99.90
4461;DHT22;2243;48.812;9.232;2022-07-29T00:24:36;22.20;99.90
4461;DHT22;2243;48.812;9.232;2022-07-29T00:27:07;22.10;99.90
4461;DHT22;2243;48.812;9.232;2022-07-29T00:29:38;22.10;99.90
4461;DHT22;2243;48.812;9.232;2022-07-29T00:32:09;22.00;99.90
4461;DHT22;2243;48.812;9.232;2022-07-29T00:34:40;21.90;99.90
4461;DHT22;2243;48.812;9.232;2022-07-29T00:37:29;21.90;99.90
4461;DHT22;2243;48.812;9.232;2022-07-29T00:40:00;22.00;99.90
4461;DHT22;2243;48.812;9.232;2022-07-29T00:42:42;22.20;99.90
4461;DHT22;2243;48.812;9.232;2022-07-29T00:45:15;22.10;99.90
4461;DHT22;2243;48.812;9.232;2022-07-29T00:47:46;22.00;99.90
4461;DHT22;2243;48.812;9.232;2022-07-29T00:50:17;22.10;99.90
4461;DHT22;2243;48.812;9.232;2022-07-29T00:52:50;22.00;99.90
4461;DHT22;2243;48.812;9.232;2022-07-29T00:55:22;22.10;99.90
4461;DHT22;2243;48.812;9.232;2022-07-29T00:57:54;22.00;99.90
4461;DHT22;2243;48.812;9.232;2022-07-29T01:00:27;22.00;99.90
4461;DHT22;2243;48.812;9.232;2022-07-29T01:02:59;21.90;99.90
4461;DHT22;2243;48.812;9.232;2022-07-29T01:05:31;22.00;99.90
4461;DHT22;2243;48.812;9.232;2022-07-29T01:08:21;21.80;99.90
4461;DHT22;2243;48.812;9.232;2022-07-29T01:10:54;21.90;99.90
4461;DHT22;2243;48.812;9.232;2022-07-29T01:13:26;21.90;99.90
4461;DHT22;2243;48.812;9.232;2022-07-29T01:16:04;21.90;99.90
4461;DHT22;2243;48.812;9.232;2022-07-29T01:18:46;22.00;99.90
4461;DHT22;2243;48.812;9.232;2022-07-29T01:29:58;21.90;99.90
4461;DHT22;2243;48.812;9.232;2022-07-29T01:32:37;21.90;99.90
4461;DHT22;2243;48.812;9.232;2022-07-29T01:35:21;21.90;99.90
4461;DHT22;2243;48.812;9.232;2022-07-29T01:38:11;22.00;99.90
4461;DHT22;2243;48.812;9.232;2022-07-29T01:40:52;22.00;99.90
4461;DHT22;2243;48.812;9.232;2022-07-29T01:43:39;22.10;99.90
4461;DHT22;2243;48.812;9.232;2022-07-29T01:46:19;22.20;99.90
4461;DHT22;2243;48.812;9.232;2022-07-29T01:49:14;22.10;99.90
4461;DHT22;2243;48.812;9.232;2022-07-29T01:51:50;22.00;99.90
4461;DHT22;2243;48.812;9.232;2022-07-29T01:57:03;22.00;99.90
4461;DHT22;2243;48.812;9.232;2022-07-29T01:59:37;22.10;99.90
4461;DHT22;2243;48.812;9.232;2022-07-29T02:02:10;22.10;99.90
4461;DHT22;2243;48.812;9.232;2022-07-29T02:04:44;22.10;99.90
4461;DHT22;2243;48.812;9.232;2022-07-29T02:07:21;22.00;99.90
4461;DHT22;2243;48.812;9.232;2022-07-29T02:09:55;22.00;99.90
4461;DHT22;2243;48.812;9.232;2022-07-29T02:12:27;21.90;99.90
4461;DHT22;2243;48.812;9.232;2022-07-29T02:15:02;21.90;99.90
4461;DHT22;2243;48.812;9.232;2022-07-29T02:17:42;22.10;99.90
4461;DHT22;2243;48.812;9.232;2022-07-29T02:20:34;21.90;99.90
4461;DHT22;2243;48.812;9.232;2022-07-29T02:23:10;21.90;99.90
4461;DHT22;2243;48.812;9.232;2022-07-29T02:25:42;21.80;99.90
4461;DHT22;2243;48.812;9.232;2022-07-29T02:28:16;21.80;99.90
4461;DHT22;2243;48.812;9.232;2022-07-29T02:30:50;21.70;99.90
4461;DHT22;2243;48.812;9.232;2022-07-29T02:33:24;21.60;99.90
4461;DHT22;2243;48.812;9.232;2022-07-29T02:35:56;21.50;99.90
4461;DHT22;2243;48.812;9.232;2022-07-29T02:38:30;21.40;99.90
4461;DHT22;2243;48.812;9.232;2022-07-29T02:41:28;21.30;99.90
4461;DHT22;2243;48.812;9.232;2022-07-29T02:44:09;21.40;99.90
4461;DHT22;2243;48.812;9.232;2022-07-29T02:50:11;21.40;99.90
4461;DHT22;2243;48.812;9.232;2022-07-29T02:52:49;21.30;99.90
4461;DHT22;2243;48.812;9.232;2022-07-29T02:55:34;21.30;99.90
4461;DHT22;2243;48.812;9.232;2022-07-29T02:58:11;21.40;99.90
4461;DHT22;2243;48.812;9.232;2022-07-29T03:00:47;21.30;99.90
4461;DHT22;2243;48.812;9.232;2022-07-29T03:03:20;21.40;99.90
4461;DHT22;2243;48.812;9.232;2022-07-29T03:05:55;21.40;99.90
4461;DHT22;2243;48.812;9.232;2022-07-29T03:08:27;21.30;99.90
4461;DHT22;2243;48.812;9.232;2022-07-29T03:10:58;21.40;99.90
4461;DHT22;2243;48.812;9.232;2022-07-29T03:13:32;21.40;99.90
4461;DHT22;2243;48.812;9.232;2022-07-29T03:16:04;21.50;99.90
4461;DHT22;2243;48.812;9.232;2022-07-29T03:18:36;21.50;99.90
4461;DHT22;2243;48.812;9.232;2022-07-29T03:21:08;21.30;99.90
4461;DHT22;2243;48.812;9.232;2022-07-29T03:23:43;21.20;99.90
4461;DHT22;2243;48.812;9.232;2022-07-29T03:26:18;21.20;99.90
4461;DHT22;2243;48.812;9.232;2022-07-29T03:28:49;21.20;99.90
4461;DHT22;2243;48.812;9.232;2022-07-29T03:31:20;21.30;99.90
4461;DHT22;2243;48.812;9.232;2022-07-29T03:33:51;21.30;99.90
4461;DHT22;2243;48.812;9.232;2022-07-29T03:36:22;21.30;99.90
4461;DHT22;2243;48.812;9.232;2022-07-29T03:38:53;21.30;99.90
4461;DHT22;2243;48.812;9.232;2022-07-29T03:41:25;21.20;99.90
4461;DHT22;2243;48.812;9.232;2022-07-29T03:43:56;21.00;99.90
4461;DHT22;2243;48.812;9.232;2022-07-29T03:46:29;21.00;99.90
4461;DHT22;2243;48.812;9.232;2022-07-29T03:49:03;20.90;99.90
4461;DHT22;2243;48.812;9.232;2022-07-29T03:51:35;20.90;99.90
4461;DHT22;2243;48.812;9.232;2022-07-29T03:54:06;20.90;99.90
4461;DHT22;2243;48.812;9.232;2022-07-29T03:56:42;21.10;99.90
4461;DHT22;2243;48.812;9.232;2022-07-29T03:59:18;21.10;99.90
4461;DHT22;2243;48.812;9.232;2022-07-29T04:01:50;21.20;99.90
4461;DHT22;2243;48.812;9.232;2022-07-29T04:04:22;21.20;99.90
4461;DHT22;2243;48.812;9.232;2022-07-29T04:06:53;20.80;99.90
4461;DHT22;2243;48.812;9.232;2022-07-29T04:09:24;20.80;99.90
4461;DHT22;2243;48.812;9.232;2022-07-29T04:11:55;20.90;99.90
4461;DHT22;2243;48.812;9.232;2022-07-29T04:14:34;20.80;99.90
4461;DHT22;2243;48.812;9.232;2022-07-29T04:17:05;20.90;99.90
4461;DHT22;2243;48.812;9.232;2022-07-29T04:19:36;20.90;99.90
4461;DHT22;2243;48.812;9.232;2022-07-29T04:22:07;20.90;99.90
4461;DHT22;2243;48.812;9.232;2022-07-29T04:24:38;21.00;99.90
4461;DHT22;2243;48.812;9.232;2022-07-29T04:27:13;21.00;99.90
4461;DHT22;2243;48.812;9.232;2022-07-29T04:29:44;20.80;99.90
4461;DHT22;2243;48.812;9.232;2022-07-29T04:32:27;20.90;99.90
4461;DHT22;2243;48.812;9.232;2022-07-29T04:34:58;20.80;99.90
4461;DHT22;2243;48.812;9.232;2022-07-29T04:37:29;20.90;99.90
4461;DHT22;2243;48.812;9.232;2022-07-29T04:40:00;21.00;99.90
4461;DHT22;2243;48.812;9.232;2022-07-29T04:42:31;21.40;99.90
4461;DHT22;2243;48.812;9.232;2022-07-29T04:45:02;21.70;99.90
4461;DHT22;2243;48.812;9.232;2022-07-29T04:47:37;21.90;99.90
4461;DHT22;2243;48.812;9.232;2022-07-29T04:50:08;22.10;99.90
4461;DHT22;2243;48.812;9.232;2022-07-29T04:52:42;22.30;99.90
4461;DHT22;2243;48.812;9.232;2022-07-29T04:55:13;22.40;99.90
4461;DHT22;2243;48.812;9.232;2022-07-29T04:57:44;22.40;99.90
4461;DHT22;2243;48.812;9.232;2022-07-29T05:00:16;22.40;99.90
4461;DHT22;2243;48.812;9.232;2022-07-29T05:02:47;22.40;99.90
4461;DHT22;2243;48.812;9.232;2022-07-29T05:05:18;22.40;99.90
4461;DHT22;2243;48.812;9.232;2022-07-29T05:07:49;22.40;99.90
4461;DHT22;2243;48.812;9.232;2022-07-29T05:10:20;22.40;99.90
4461;DHT22;2243;48.812;9.232;2022-07-29T05:12:51;22.40;99.90
4461;DHT22;2243;48.812;9.232;2022-07-29T05:15:23;22.20;99.90
4461;DHT22;2243;48.812;9.232;2022-07-29T05:17:54;22.00;99.90
4461;DHT22;2243;48.812;9.232;2022-07-29T05:20:25;21.90;99.90
4461;DHT22;2243;48.812;9.232;2022-07-29T05:23:00;21.90;99.90
4461;DHT22;2243;48.812;9.232;2022-07-29T05:25:33;21.70;99.90
4461;DHT22;2243;48.812;9.232;2022-07-29T05:28:14;21.50;99.90
4461;DHT22;2243;48.812;9.232;2022-07-29T05:30:45;21.40;99.90
4461;DHT22;2243;48.812;9.232;2022-07-29T05:33:16;21.40;99.90
4461;DHT22;2243;48.812;9.232;2022-07-29T05:36:06;21.50;99.90
4461;DHT22;2243;48.812;9.232;2022-07-29T05:38:38;21.30;99.90
4461;DHT22;2243;48.812;9.232;2022-07-29T05:41:09;21.40;99.90
4461;DHT22;2243;48.812;9.232;2022-07-29T05:43:40;21.60;99.90
4461;DHT22;2243;48.812;9.232;2022-07-29T05:46:11;21.70;99.90
4461;DHT22;2243;48.812;9.232;2022-07-29T05:48:42;21.40;99.90
4461;DHT22;2243;48.812;9.232;2022-07-29T05:51:13;21.40;99.90
4461;DHT22;2243;48.812;9.232;2022-07-29T05:53:44;21.30;99.90
4461;DHT22;2243;48.812;9.232;2022-07-29T05:56:15;21.30;99.90
4461;DHT22;2243;48.812;9.232;2022-07-29T05:58:46;21.40;99.90
4461;DHT22;2243;48.812;9.232;2022-07-29T06:01:17;21.20;99.90
4461;DHT22;2243;48.812;9.232;2022-07-29T06:03:49;21.40;99.90
4461;DHT22;2243;48.812;9.232;2022-07-29T06:06:23;21.40;99.90
4461;DHT22;2243;48.812;9.232;2022-07-29T06:08:54;21.50;99.90
4461;DHT22;2243;48.812;9.232;2022-07-29T06:11:26;21.60;99.90
4461;DHT22;2243;48.812;9.232;2022-07-29T06:13:57;21.50;99.90
4461;DHT22;2243;48.812;9.232;2022-07-29T06:16:28;21.70;99.90
4461;DHT22;2243;48.812;9.232;2022-07-29T06:19:00;22.00;99.90
4461;DHT22;2243;48.812;9.232;2022-07-29T06:21:31;22.00;99.90
4461;DHT22;2243;48.812;9.232;2022-07-29T06:24:02;21.90;99.90
4461;DHT22;2243;48.812;9.232;2022-07-29T06:26:33;22.00;99.90
4461;DHT22;2243;48.812;9.232;2022-07-29T06:29:09;22.00;99.90
4461;DHT22;2243;48.812;9.232;2022-07-29T06:31:43;22.40;99.90
4461;DHT22;2243;48.812;9.232;2022-07-29T06:34:15;22.50;99.90
4461;DHT22;2243;48.812;9.232;2022-07-29T06:36:47;22.50;99.90
4461;DHT22;2243;48.812;9.232;2022-07-29T06:39:20;22.50;99.90
4461;DHT22;2243;48.812;9.232;2022-07-29T06:41:51;22.70;99.90
4461;DHT22;2243;48.812;9.232;2022-07-29T06:44:22;22.90;99.90
4461;DHT22;2243;48.812;9.232;2022-07-29T06:46:53;22.90;99.90
4461;DHT22;2243;48.812;9.232;2022-07-29T06:49:25;22.80;99.90
4461;DHT22;2243;48.812;9.232;2022-07-29T06:51:57;22.90;99.90
4461;DHT22;2243;48.812;9.232;2022-07-29T06:54:28;23.00;99.90
4461;DHT22;2243;48.812;9.232;2022-07-29T06:56:58;23.00;99.90
4461;DHT22;2243;48.812;9.232;2022-07-29T06:59:29;23.00;99.90
4461;DHT22;2243;48.812;9.232;2022-07-29T07:02:05;23.00;99.90
4461;DHT22;2243;48.812;9.232;2022-07-29T07:04:36;23.30;99.90
4461;DHT22;2243;48.812;9.232;2022-07-29T07:07:07;23.20;99.90
4461;DHT22;2243;48.812;9.232;2022-07-29T07:09:38;23.50;99.90
4461;DHT22;2243;48.812;9.232;2022-07-29T07:12:10;23.60;99.90
4461;DHT22;2243;48.812;9.232;2022-07-29T07:14:42;23.80;99.90
4461;DHT22;2243;48.812;9.232;2022-07-29T07:17:14;23.80;99.90
4461;DHT22;2243;48.812;9.232;2022-07-29T07:19:44;23.90;99.90
4461;DHT22;2243;48.812;9.232;2022-07-29T07:22:15;23.80;99.90
4461;DHT22;2243;48.812;9.232;2022-07-29T07:24:46;23.90;99.90
4461;DHT22;2243;48.812;9.232;2022-07-29T07:27:17;23.90;99.90
4461;DHT22;2243;48.812;9.232;2022-07-29T07:29:48;23.80;99.90
4461;DHT22;2243;48.812;9.232;2022-07-29T07:32:19;23.80;99.90
4461;DHT22;2243;48.812;9.232;2022-07-29T07:34:50;23.70;99.90
4461;DHT22;2243;48.812;9.232;2022-07-29T07:37:21;23.60;99.90
4461;DHT22;2243;48.812;9.232;2022-07-29T07:39:52;23.90;99.90
4461;DHT22;2243;48.812;9.232;2022-07-29T07:42:24;23.90;99.90
4461;DHT22;2243;48.812;9.232;2022-07-29T07:44:55;24.10;99.90
4461;DHT22;2243;48.812;9.232;2022-07-29T07:47:43;24.30;99.90
4461;DHT22;2243;48.812;9.232;2022-07-29T07:50:14;24.40;99.90
4461;DHT22;2243;48.812;9.232;2022-07-29T07:52:53;24.50;99.90
4461;DHT22;2243;48.812;9.232;2022-07-29T07:55:28;24.70;99.90
4461;DHT22;2243;48.812;9.232;2022-07-29T07:58:19;24.80;99.90
4461;DHT22;2243;48.812;9.232;2022-07-29T08:00:49;24.70;99.90
4461;DHT22;2243;48.812;9.232;2022-07-29T08:03:20;24.80;99.90
4461;DHT22;2243;48.812;9.232;2022-07-29T08:05:51;25.00;99.90
4461;DHT22;2243;48.812;9.232;2022-07-29T08:08:24;24.90;99.90
4461;DHT22;2243;48.812;9.232;2022-07-29T08:10:55;24.80;99.90
4461;DHT22;2243;48.812;9.232;2022-07-29T08:13:33;24.80;99.90
4461;DHT22;2243;48.812;9.232;2022-07-29T08:16:04;24.80;99.90
4461;DHT22;2243;48.812;9.232;2022-07-29T08:18:43;24.90;99.90
4461;DHT22;2243;48.812;9.232;2022-07-29T08:21:15;24.90;99.90
4461;DHT22;2243;48.812;9.232;2022-07-29T08:23:46;25.10;99.90
4461;DHT22;2243;48.812;9.232;2022-07-29T08:26:29;25.10;99.90
4461;DHT22;2243;48.812;9.232;2022-07-29T08:29:00;25.10;99.90
4461;DHT22;2243;48.812;9.232;2022-07-29T08:31:31;25.20;99.90
4461;DHT22;2243;48.812;9.232;2022-07-29T08:34:03;25.30;99.90
4461;DHT22;2243;48.812;9.232;2022-07-29T08:36:34;25.30;99.70
4461;DHT22;2243;48.812;9.232;2022-07-29T08:39:05;25.40;99.10
4461;DHT22;2243;48.812;9.232;2022-07-29T08:41:36;25.40;98.60
4461;DHT22;2243;48.812;9.232;2022-07-29T08:44:08;25.50;98.50
4461;DHT22;2243;48.812;9.232;2022-07-29T08:46:39;25.40;98.60
4461;DHT22;2243;48.812;9.232;2022-07-29T08:49:10;25.50;98.60
4461;DHT22;2243;48.812;9.232;2022-07-29T08:51:42;25.60;98.20
4461;DHT22;2243;48.812;9.232;2022-07-29T08:54:21;25.70;98.10
4461;DHT22;2243;48.812;9.232;2022-07-29T08:56:54;25.60;98.20
4461;DHT22;2243;48.812;9.232;2022-07-29T08:59:27;25.60;97.80
4461;DHT22;2243;48.812;9.232;2022-07-29T09:02:01;25.60;97.70
4461;DHT22;2243;48.812;9.232;2022-07-29T09:04:34;25.70;97.30
4461;DHT22;2243;48.812;9.232;2022-07-29T09:07:06;25.70;97.10
4461;DHT22;2243;48.812;9.232;2022-07-29T09:09:37;25.80;97.10
4461;DHT22;2243;48.812;9.232;2022-07-29T09:12:13;25.80;96.10
4461;DHT22;2243;48.812;9.232;2022-07-29T09:14:59;25.90;95.70
4461;DHT22;2243;48.812;9.232;2022-07-29T09:20:22;26.10;95.00
4461;DHT22;2243;48.812;9.232;2022-07-29T09:22:53;26.10;94.60
4461;DHT22;2243;48.812;9.232;2022-07-29T09:25:38;26.30;94.50
4461;DHT22;2243;48.812;9.232;2022-07-29T09:28:15;26.40;94.60
4461;DHT22;2243;48.812;9.232;2022-07-29T09:30:57;26.40;93.30
4461;DHT22;2243;48.812;9.232;2022-07-29T09:33:33;26.40;93.40
4461;DHT22;2243;48.812;9.232;2022-07-29T09:36:10;26.50;93.40
4461;DHT22;2243;48.812;9.232;2022-07-29T09:38:42;26.50;93.20
4461;DHT22;2243;48.812;9.232;2022-07-29T09:41:13;26.60;93.00
4461;DHT22;2243;48.812;9.232;2022-07-29T09:43:54;26.70;92.90
4461;DHT22;2243;48.812;9.232;2022-07-29T09:46:28;26.80;92.90
4461;DHT22;2243;48.812;9.232;2022-07-29T09:49:11;27.00;92.30
4461;DHT22;2243;48.812;9.232;2022-07-29T09:51:43;27.10;92.00
4461;DHT22;2243;48.812;9.232;2022-07-29T09:54:24;27.20;92.00
4461;DHT22;2243;48.812;9.232;2022-07-29T09:56:56;27.30;91.50
4461;DHT22;2243;48.812;9.232;2022-07-29T09:59:27;27.40;91.00
4461;DHT22;2243;48.812;9.232;2022-07-29T10:01:59;27.40;90.70
4461;DHT22;2243;48.812;9.232;2022-07-29T10:04:40;27.30;90.70
4461;DHT22;2243;48.812;9.232;2022-07-29T10:07:12;27.20;91.00
4461;DHT22;2243;48.812;9.232;2022-07-29T10:09:56;27.10;90.80
4461;DHT22;2243;48.812;9.232;2022-07-29T10:12:27;27.10;91.10
4461;DHT22;2243;48.812;9.232;2022-07-29T10:14:58;27.20;91.40
4461;DHT22;2243;48.812;9.232;2022-07-29T10:17:32;27.40;90.90
4461;DHT22;2243;48.812;9.232;2022-07-29T10:20:04;27.30;91.20
4461;DHT22;2243;48.812;9.232;2022-07-29T10:22:42;27.40;91.40
4461;DHT22;2243;48.812;9.232;2022-07-29T10:25:24;27.40;91.10
4461;DHT22;2243;48.812;9.232;2022-07-29T10:27:55;27.50;91.00
4461;DHT22;2243;48.812;9.232;2022-07-29T10:30:27;27.50;91.00
4461;DHT22;2243;48.812;9.232;2022-07-29T10:39:19;27.50;91.00
4461;DHT22;2243;48.812;9.232;2022-07-29T10:42:13;27.40;91.50
4461;DHT22;2243;48.812;9.232;2022-07-29T10:44:50;27.10;91.70
4461;DHT22;2243;48.812;9.232;2022-07-29T10:47:27;26.90;91.70
4461;DHT22;2243;48.812;9.232;2022-07-29T10:49:59;26.90;91.80
4461;DHT22;2243;48.812;9.232;2022-07-29T10:55:34;26.80;92.00
4461;DHT22;2243;48.812;9.232;2022-07-29T10:58:14;26.70;92.40
4461;DHT22;2243;48.812;9.232;2022-07-29T11:00:53;26.60;93.20
4461;DHT22;2243;48.812;9.232;2022-07-29T11:03:46;26.40;93.70
4461;DHT22;2243;48.812;9.232;2022-07-29T11:06:20;26.20;93.70
4461;DHT22;2243;48.812;9.232;2022-07-29T11:09:18;26.20;93.90
4461;DHT22;2243;48.812;9.232;2022-07-29T11:15:20;26.10;94.20
4461;DHT22;2243;48.812;9.232;2022-07-29T11:26:20;24.90;99.90
4461;DHT22;2243;48.812;9.232;2022-07-29T11:29:06;23.90;99.90
4461;DHT22;2243;48.812;9.232;2022-07-29T11:31:47;23.50;99.90
4461;DHT22;2243;48.812;9.232;2022-07-29T11:34:30;23.30;99.90
4461;DHT22;2243;48.812;9.232;2022-07-29T11:48:16;22.70;99.90
4461;DHT22;2243;48.812;9.232;2022-07-29T11:51:10;22.40;99.90
4461;DHT22;2243;48.812;9.232;2022-07-29T11:53:47;22.20;99.90
4461;DHT22;2243;48.812;9.232;2022-07-29T11:56:23;21.90;99.90
4461;DHT22;2243;48.812;9.232;2022-07-29T11:59:07;21.80;99.90
4461;DHT22;2243;48.812;9.232;2022-07-29T12:01:59;21.90;99.90
4461;DHT22;2243;48.812;9.232;2022-07-29T12:04:50;22.20;99.90
4461;DHT22;2243;48.812;9.232;2022-07-29T12:07:33;22.30;99.90
4461;DHT22;2243;48.812;9.232;2022-07-29T12:10:06;22.40;99.90
4461;DHT22;2243;48.812;9.232;2022-07-29T12:12:41;22.40;99.90
4461;DHT22;2243;48.812;9.232;2022-07-29T12:15:14;22.30;99.90
4461;DHT22;2243;48.812;9.232;2022-07-29T12:17:49;22.30;99.90
4461;DHT22;2243;48.812;9.232;2022-07-29T12:20:28;22.10;99.90
4461;DHT22;2243;48.812;9.232;2022-07-29T12:23:05;21.90;99.90
4461;DHT22;2243;48.812;9.232;2022-07-29T12:25:43;22.10;99.90
4461;DHT22;2243;48.812;9.232;2022-07-29T12:28:19;22.20;99.90
4461;DHT22;2243;48.812;9.232;2022-07-29T12:30:58;22.00;99.90
4461;DHT22;2243;48.812;9.232;2022-07-29T12:33:29;21.80;99.90
4461;DHT22;2243;48.812;9.232;2022-07-29T12:36:01;22.00;99.90
4461;DHT22;2243;48.812;9.232;2022-07-29T12:38:42;22.10;99.90
4461;DHT22;2243;48.812;9.232;2022-07-29T12:41:13;22.20;99.90
4461;DHT22;2243;48.812;9.232;2022-07-29T12:43:54;22.30;99.90
4461;DHT22;2243;48.812;9.232;2022-07-29T12:46:25;21.60;99.90
4461;DHT22;2243;48.812;9.232;2022-07-29T12:48:56;21.60;99.90
4461;DHT22;2243;48.812;9.232;2022-07-29T12:54:11;21.60;99.90
4461;DHT22;2243;48.812;9.232;2022-07-29T12:56:45;21.90;99.90
4461;DHT22;2243;48.812;9.232;2022-07-29T12:59:18;21.90;99.90
4461;DHT22;2243;48.812;9.232;2022-07-29T13:01:52;21.90;99.90
4461;DHT22;2243;48.812;9.232;2022-07-29T13:04:30;21.90;99.90
4461;DHT22;2243;48.812;9.232;2022-07-29T13:07:04;21.80;99.90
4461;DHT22;2243;48.812;9.232;2022-07-29T13:09:41;21.70;99.90
4461;DHT22;2243;48.812;9.232;2022-07-29T13:12:14;21.80;99.90
4461;DHT22;2243;48.812;9.232;2022-07-29T13:14:47;21.90;99.90
4461;DHT22;2243;48.812;9.232;2022-07-29T13:17:21;21.80;99.90
4461;DHT22;2243;48.812;9.232;2022-07-29T13:20:07;21.90;99.90
4461;DHT22;2243;48.812;9.232;2022-07-29T13:22:47;21.90;99.90
4461;DHT22;2243;48.812;9.232;2022-07-29T13:25:29;21.80;99.90
4461;DHT22;2243;48.812;9.232;2022-07-29T13:28:02;21.80;99.90
4461;DHT22;2243;48.812;9.232;2022-07-29T13:30:33;21.90;99.90
4461;DHT22;2243;48.812;9.232;2022-07-29T13:33:04;22.00;99.90
4461;DHT22;2243;48.812;9.232;2022-07-29T13:35:35;21.90;99.90
4461;DHT22;2243;48.812;9.232;2022-07-29T13:38:09;22.00;99.90
4461;DHT22;2243;48.812;9.232;2022-07-29T13:40:41;22.00;99.90
4461;DHT22;2243;48.812;9.232;2022-07-29T13:43:12;21.90;99.90
4461;DHT22;2243;48.812;9.232;2022-07-29T13:45:43;21.90;99.90
4461;DHT22;2243;48.812;9.232;2022-07-29T13:48:14;21.90;99.90
4461;DHT22;2243;48.812;9.232;2022-07-29T13:50:45;21.80;99.90
4461;DHT22;2243;48.812;9.232;2022-07-29T13:53:17;21.70;99.90
4461;DHT22;2243;48.812;9.232;2022-07-29T13:55:48;22.00;99.90
4461;DHT22;2243;48.812;9.232;2022-07-29T13:58:18;22.10;99.90
4461;DHT22;2243;48.812;9.232;2022-07-29T14:00:50;22.30;99.90
4461;DHT22;2243;48.812;9.232;2022-07-29T14:03:21;22.40;99.90
4461;DHT22;2243;48.812;9.232;2022-07-29T14:05:52;22.60;99.90
4461;DHT22;2243;48.812;9.232;2022-07-29T14:08:23;22.70;99.90
4461;DHT22;2243;48.812;9.232;2022-07-29T14:10:54;23.00;99.90
4461;DHT22;2243;48.812;9.232;2022-07-29T14:13:28;23.10;99.90
4461;DHT22;2243;48.812;9.232;2022-07-29T14:16:00;23.00;99.90
4461;DHT22;2243;48.812;9.232;2022-07-29T14:18:31;23.10;99.90
4461;DHT22;2243;48.812;9.232;2022-07-29T14:21:02;23.00;99.90
4461;DHT22;2243;48.812;9.232;2022-07-29T14:23:33;22.90;99.90
4461;DHT22;2243;48.812;9.232;2022-07-29T14:26:04;22.80;99.90
4461;DHT22;2243;48.812;9.232;2022-07-29T14:28:40;22.80;99.90
4461;DHT22;2243;48.812;9.232;2022-07-29T14:31:11;23.00;99.90
4461;DHT22;2243;48.812;9.232;2022-07-29T14:33:42;23.00;99.90
4461;DHT22;2243;48.812;9.232;2022-07-29T14:36:16;23.10;99.90
4461;DHT22;2243;48.812;9.232;2022-07-29T14:38:50;23.20;99.90
4461;DHT22;2243;48.812;9.232;2022-07-29T14:41:24;23.40;99.90
4461;DHT22;2243;48.812;9.232;2022-07-29T14:43:55;23.50;99.90
4461;DHT22;2243;48.812;9.232;2022-07-29T14:46:27;23.60;99.90
4461;DHT22;2243;48.812;9.232;2022-07-29T14:48:58;23.50;99.90
4461;DHT22;2243;48.812;9.232;2022-07-29T14:51:29;23.50;99.90
4461;DHT22;2243;48.812;9.232;2022-07-29T14:54:02;23.60;99.90
4461;DHT22;2243;48.812;9.232;2022-07-29T14:56:33;23.80;99.90
4461;DHT22;2243;48.812;9.232;2022-07-29T14:59:07;23.90;99.90
4461;DHT22;2243;48.812;9.232;2022-07-29T15:01:38;24.00;99.90
4461;DHT22;2243;48.812;9.232;2022-07-29T15:04:09;23.90;99.90
4461;DHT22;2243;48.812;9.232;2022-07-29T15:06:40;23.90;99.90
4461;DHT22;2243;48.812;9.232;2022-07-29T15:09:11;23.80;99.90
4461;DHT22;2243;48.812;9.232;2022-07-29T15:11:42;23.80;99.90
4461;DHT22;2243;48.812;9.232;2022-07-29T15:14:13;23.70;99.90
4461;DHT22;2243;48.812;9.232;2022-07-29T15:16:44;23.70;99.90
4461;DHT22;2243;48.812;9.232;2022-07-29T15:19:17;23.80;99.90
4461;DHT22;2243;48.812;9.232;2022-07-29T15:21:48;23.60;99.90
4461;DHT22;2243;48.812;9.232;2022-07-29T15:24:20;23.60;99.90
4461;DHT22;2243;48.812;9.232;2022-07-29T15:26:51;23.70;99.90
4461;DHT22;2243;48.812;9.232;2022-07-29T15:29:23;23.60;99.90
4461;DHT22;2243;48.812;9.232;2022-07-29T15:31:54;23.70;99.90
4461;DHT22;2243;48.812;9.232;2022-07-29T15:34:27;23.70;99.90
4461;DHT22;2243;48.812;9.232;2022-07-29T15:36:59;23.70;99.90
4461;DHT22;2243;48.812;9.232;2022-07-29T15:39:31;23.60;99.90
4461;DHT22;2243;48.812;9.232;2022-07-29T15:42:05;23.60;99.90
4461;DHT22;2243;48.812;9.232;2022-07-29T15:44:39;23.60;99.90
4461;DHT22;2243;48.812;9.232;2022-07-29T15:47:10;23.70;99.90
4461;DHT22;2243;48.812;9.232;2022-07-29T15:49:41;23.50;99.90
4461;DHT22;2243;48.812;9.232;2022-07-29T15:52:19;23.60;99.90
4461;DHT22;2243;48.812;9.232;2022-07-29T15:54:56;23.60;99.90
4461;DHT22;2243;48.812;9.232;2022-07-29T15:57:27;23.60;99.90
4461;DHT22;2243;48.812;9.232;2022-07-29T15:59:58;23.80;99.90
4461;DHT22;2243;48.812;9.232;2022-07-29T16:02:29;23.70;99.90
4461;DHT22;2243;48.812;9.232;2022-07-29T16:05:01;23.80;99.90
4461;DHT22;2243;48.812;9.232;2022-07-29T16:07:32;23.70;99.90
4461;DHT22;2243;48.812;9.232;2022-07-29T16:10:03;23.80;99.90
4461;DHT22;2243;48.812;9.232;2022-07-29T16:12:35;23.90;99.90
4461;DHT22;2243;48.812;9.232;2022-07-29T16:15:06;23.90;99.90
4461;DHT22;2243;48.812;9.232;2022-07-29T16:17:40;23.90;99.90
4461;DHT22;2243;48.812;9.232;2022-07-29T16:20:11;24.00;99.90
4461;DHT22;2243;48.812;9.232;2022-07-29T16:22:43;24.00;99.90
4461;DHT22;2243;48.812;9.232;2022-07-29T16:25:14;23.90;99.90
4461;DHT22;2243;48.812;9.232;2022-07-29T16:27:45;23.90;99.90
4461;DHT22;2243;48.812;9.232;2022-07-29T16:30:16;23.80;99.90
4461;DHT22;2243;48.812;9.232;2022-07-29T16:32:47;23.80;99.90
4461;DHT22;2243;48.812;9.232;2022-07-29T16:35:18;23.70;99.90
4461;DHT22;2243;48.812;9.232;2022-07-29T16:37:49;23.80;99.90
4461;DHT22;2243;48.812;9.232;2022-07-29T16:40:20;23.80;99.90
4461;DHT22;2243;48.812;9.232;2022-07-29T16:42:51;23.60;99.90
4461;DHT22;2243;48.812;9.232;2022-07-29T16:45:22;23.60;99.90
4461;DHT22;2243;48.812;9.232;2022-07-29T16:47:54;23.50;99.90
4461;DHT22;2243;48.812;9.232;2022-07-29T16:50:31;23.60;99.90
4461;DHT22;2243;48.812;9.232;2022-07-29T16:53:02;23.80;99.90
4461;DHT22;2243;48.812;9.232;2022-07-29T16:55:33;23.60;99.90
4461;DHT22;2243;48.812;9.232;2022-07-29T16:58:04;23.50;99.90
4461;DHT22;2243;48.812;9.232;2022-07-29T17:00:35;23.70;99.90
4461;DHT22;2243;48.812;9.232;2022-07-29T17:03:06;23.80;99.90
4461;DHT22;2243;48.812;9.232;2022-07-29T17:05:37;23.70;99.90
4461;DHT22;2243;48.812;9.232;2022-07-29T17:08:23;23.90;99.90
4461;DHT22;2243;48.812;9.232;2022-07-29T17:10:56;23.90;99.90
4461;DHT22;2243;48.812;9.232;2022-07-29T17:13:27;24.10;99.90
4461;DHT22;2243;48.812;9.232;2022-07-29T17:15:58;24.20;99.90
4461;DHT22;2243;48.812;9.232;2022-07-29T17:18:30;24.30;99.90
4461;DHT22;2243;48.812;9.232;2022-07-29T17:21:01;24.30;99.90
4461;DHT22;2243;48.812;9.232;2022-07-29T17:23:32;24.20;99.90
4461;DHT22;2243;48.812;9.232;2022-07-29T17:26:03;24.10;99.90
4461;DHT22;2243;48.812;9.232;2022-07-29T17:28:34;24.20;99.90
4461;DHT22;2243;48.812;9.232;2022-07-29T17:31:05;24.30;99.90
4461;DHT22;2243;48.812;9.232;2022-07-29T17:33:36;24.30;99.90
4461;DHT22;2243;48.812;9.232;2022-07-29T17:36:07;24.30;99.90
4461;DHT22;2243;48.812;9.232;2022-07-29T17:38:57;24.30;99.90